createdAt,value
2023-05-03T00:00:43.470Z,4.30
2023-05-03T00:03:10.980Z,3.38
2023-05-03T00:05:38.410Z,3.70
2023-05-03T00:08:07.458Z,3.08
2023-05-03T00:10:34.592Z,4.28
2023-05-03T00:13:01.630Z,2.63
2023-05-03T00:15:28.808Z,3.00
2023-05-03T00:17:56.006Z,2.90
2023-05-03T00:20:23.350Z,3.10
2023-05-03T00:22:50.595Z,2.70
2023-05-03T00:25:17.924Z,2.65
2023-05-03T00:27:45.117Z,3.55
2023-05-03T00:30:13.150Z,2.63
2023-05-03T00:32:40.146Z,2.90
2023-05-03T00:35:07.981Z,3.13
2023-05-03T00:37:35.062Z,2.47
2023-05-03T00:40:02.484Z,3.38
2023-05-03T00:42:29.776Z,2.42
2023-05-03T00:44:56.837Z,2.47
2023-05-03T00:47:24.198Z,2.30
2023-05-03T00:49:51.953Z,2.25
2023-05-03T00:52:19.056Z,2.67
2023-05-03T00:54:46.362Z,3.03
2023-05-03T00:57:13.914Z,2.53
2023-05-03T00:59:47.777Z,2.97
2023-05-03T01:02:14.985Z,2.50
2023-05-03T01:04:43.597Z,2.60
2023-05-03T01:07:48.496Z,2.42
2023-05-03T01:10:45.192Z,2.45
2023-05-03T01:13:47.582Z,2.45
2023-05-03T01:16:23.794Z,2.63
2023-05-03T01:18:53.582Z,2.38
2023-05-03T01:21:22.983Z,3.20
2023-05-03T01:24:14.345Z,2.72
2023-05-03T01:26:45.079Z,2.63
2023-05-03T01:29:14.949Z,3.05
2023-05-03T01:32:01.927Z,2.60
2023-05-03T01:34:39.172Z,2.50
2023-05-03T01:37:10.533Z,3.13
2023-05-03T01:39:44.864Z,2.80
2023-05-03T01:42:17.262Z,2.85
2023-05-03T01:44:46.063Z,2.92
2023-05-03T01:47:18.206Z,2.88
2023-05-03T01:49:47.623Z,2.80
2023-05-03T01:52:17.673Z,2.90
2023-05-03T01:54:45.197Z,3.17
2023-05-03T01:57:12.884Z,3.03
2023-05-03T01:59:42.000Z,2.83
2023-05-03T02:02:09.748Z,2.97
2023-05-03T02:04:37.108Z,3.20
2023-05-03T02:07:04.216Z,3.10
2023-05-03T02:09:31.152Z,2.88
2023-05-03T02:11:58.170Z,3.30
2023-05-03T02:14:25.489Z,3.05
2023-05-03T02:16:55.911Z,3.65
2023-05-03T02:19:23.219Z,2.80
2023-05-03T02:21:50.268Z,2.88
2023-05-03T02:24:17.801Z,4.10
2023-05-03T02:26:45.134Z,3.17
2023-05-03T02:29:12.299Z,3.17
2023-05-03T02:31:39.284Z,3.00
2023-05-03T02:34:07.345Z,4.05
2023-05-03T02:36:34.434Z,2.67
2023-05-03T02:39:02.208Z,2.88
2023-05-03T02:41:29.306Z,3.17
2023-05-03T02:43:57.264Z,3.83
2023-05-03T02:46:26.931Z,3.08
2023-05-03T02:48:54.414Z,3.60
2023-05-03T02:51:21.392Z,3.38
2023-05-03T02:53:49.021Z,3.80
2023-05-03T02:56:16.276Z,3.15
2023-05-03T02:58:43.426Z,3.60
2023-05-03T03:01:12.100Z,3.72
2023-05-03T03:03:39.668Z,3.65
2023-05-03T03:06:07.398Z,4.15
2023-05-03T03:08:38.854Z,3.85
2023-05-03T03:11:08.243Z,3.40
2023-05-03T03:13:40.012Z,3.53
2023-05-03T03:16:08.635Z,3.65
2023-05-03T03:18:36.800Z,3.83
2023-05-03T03:21:04.294Z,3.50
2023-05-03T03:23:32.945Z,3.92
2023-05-03T03:26:00.213Z,3.28
2023-05-03T03:28:27.768Z,3.88
2023-05-03T03:30:58.460Z,3.35
2023-05-03T03:33:29.051Z,3.92
2023-05-03T03:36:03.040Z,4.22
2023-05-03T03:38:36.456Z,5.38
2023-05-03T03:41:08.624Z,4.65
2023-05-03T03:43:36.638Z,5.40
2023-05-03T03:46:07.219Z,5.32
2023-05-03T03:48:34.898Z,4.65
2023-05-03T03:51:02.117Z,5.28
2023-05-03T03:53:36.515Z,5.60
2023-05-03T03:56:04.176Z,5.45
2023-05-03T03:58:32.532Z,5.38
2023-05-03T04:01:01.606Z,5.80
2023-05-03T04:03:30.311Z,5.55
2023-05-03T04:05:58.173Z,5.55
2023-05-03T04:08:26.535Z,6.65
2023-05-03T04:10:53.772Z,5.63
2023-05-03T04:13:21.564Z,6.07
2023-05-03T04:15:56.302Z,6.05
2023-05-03T04:18:24.155Z,6.28
2023-05-03T04:20:53.978Z,5.63
2023-05-03T04:23:22.156Z,5.90
2023-05-03T04:25:49.670Z,5.60
2023-05-03T04:28:19.513Z,5.88
2023-05-03T04:30:49.628Z,5.45
2023-05-03T04:33:22.587Z,5.53
2023-05-03T04:35:52.864Z,6.20
2023-05-03T04:38:20.689Z,5.40
2023-05-03T04:40:47.933Z,6.03
2023-05-03T04:43:15.326Z,5.95
2023-05-03T04:45:45.651Z,5.13
2023-05-03T04:48:18.414Z,5.45
2023-05-03T04:50:45.683Z,5.03
2023-05-03T04:53:15.709Z,5.75
2023-05-03T04:55:47.806Z,5.43
2023-05-03T04:58:15.599Z,5.32
2023-05-03T05:00:43.384Z,5.40
2023-05-03T05:05:46.984Z,4.72
2023-05-03T05:08:14.737Z,5.20
2023-05-03T05:13:20.097Z,5.43
2023-05-03T05:15:47.173Z,5.10
2023-05-03T05:18:17.076Z,5.30
2023-05-03T05:20:45.701Z,4.70
2023-05-03T05:23:12.900Z,5.15
2023-05-03T05:25:43.332Z,5.30
2023-05-03T05:28:11.492Z,5.68
2023-05-03T05:30:39.838Z,5.68
2023-05-03T05:33:10.973Z,5.40
2023-05-03T05:35:38.884Z,4.85
2023-05-03T05:38:06.082Z,6.18
2023-05-03T05:40:34.626Z,6.20
2023-05-03T05:43:02.682Z,5.35
2023-05-03T05:45:34.721Z,5.90
2023-05-03T05:48:04.977Z,6.60
2023-05-03T05:50:32.803Z,6.32
2023-05-03T05:53:05.023Z,6.53
2023-05-03T05:55:37.284Z,6.85
2023-05-03T05:58:05.052Z,6.25
2023-05-03T06:00:41.267Z,7.00
2023-05-03T06:03:08.445Z,6.40
2023-05-03T06:05:36.940Z,7.40
2023-05-03T06:08:04.319Z,7.15
2023-05-03T06:10:31.603Z,7.20
2023-05-03T06:12:58.937Z,6.72
2023-05-03T06:15:27.965Z,6.88
2023-05-03T06:17:55.239Z,7.15
2023-05-03T06:20:24.681Z,7.32
2023-05-03T06:22:53.225Z,7.28
2023-05-03T06:25:21.027Z,7.75
2023-05-03T06:27:50.164Z,6.90
2023-05-03T06:30:20.758Z,6.72
2023-05-03T06:32:49.836Z,7.47
2023-05-03T06:35:20.191Z,7.00
2023-05-03T06:37:47.892Z,7.97
2023-05-03T06:40:16.243Z,7.63
2023-05-03T06:42:43.473Z,6.75
2023-05-03T06:45:16.040Z,7.38
2023-05-03T06:47:43.395Z,7.78
2023-05-03T06:50:11.436Z,8.48
2023-05-03T06:52:38.657Z,8.38
2023-05-03T06:55:06.320Z,7.88
2023-05-03T06:57:33.527Z,8.80
2023-05-03T07:00:00.779Z,8.88
2023-05-03T07:02:28.468Z,8.50
2023-05-03T07:04:55.930Z,8.88
2023-05-03T07:07:23.191Z,9.07
2023-05-03T07:09:50.459Z,9.43
2023-05-03T07:12:17.765Z,8.38
2023-05-03T07:14:48.151Z,8.57
2023-05-03T07:17:17.568Z,8.57
2023-05-03T07:19:44.608Z,8.40
2023-05-03T07:22:12.327Z,8.07
2023-05-03T07:24:39.505Z,6.90
2023-05-03T07:27:06.906Z,6.65
2023-05-03T07:29:34.111Z,6.88
2023-05-03T07:32:01.490Z,6.90
2023-05-03T07:34:28.490Z,5.57
2023-05-03T07:36:56.235Z,7.38
2023-05-03T07:39:23.317Z,6.28
2023-05-03T07:41:52.971Z,6.25
2023-05-03T07:44:20.161Z,5.55
2023-05-03T07:46:47.316Z,6.00
2023-05-03T07:49:14.502Z,6.68
2023-05-03T07:51:42.037Z,6.45
2023-05-03T07:54:09.255Z,5.68
2023-05-03T07:56:36.655Z,6.20
2023-05-03T07:59:09.857Z,7.15
2023-05-03T08:01:38.336Z,6.13
2023-05-03T08:04:06.068Z,6.68
2023-05-03T08:06:35.755Z,7.68
2023-05-03T08:09:04.676Z,7.28
2023-05-03T08:11:32.257Z,7.03
2023-05-03T08:13:59.589Z,6.63
2023-05-03T08:16:27.158Z,6.63
2023-05-03T08:18:55.424Z,6.65
2023-05-03T08:21:25.308Z,7.82
2023-05-03T08:23:52.664Z,7.90
2023-05-03T08:26:22.326Z,8.68
2023-05-03T08:28:49.773Z,8.38
2023-05-03T08:31:17.552Z,7.82
2023-05-03T08:33:44.771Z,8.65
2023-05-03T08:36:12.026Z,8.30
2023-05-03T08:38:41.629Z,7.63
2023-05-03T08:41:30.510Z,7.13
2023-05-03T08:44:01.247Z,7.57
2023-05-03T08:46:29.846Z,7.75
2023-05-03T08:48:57.495Z,6.63
2023-05-03T08:51:25.309Z,6.25
2023-05-03T08:53:53.182Z,6.93
2023-05-03T08:56:33.939Z,6.05
2023-05-03T08:59:07.990Z,5.35
2023-05-03T09:01:40.357Z,4.05
2023-05-03T09:04:08.892Z,4.90
2023-05-03T09:06:37.006Z,5.40
2023-05-03T09:09:09.895Z,5.13
2023-05-03T09:11:46.452Z,4.40
2023-05-03T09:14:18.840Z,5.18
2023-05-03T09:16:47.508Z,5.03
2023-05-03T09:19:16.349Z,4.30
2023-05-03T09:21:45.624Z,4.68
2023-05-03T09:24:14.117Z,4.80
2023-05-03T09:26:42.593Z,3.50
2023-05-03T09:29:10.249Z,4.22
2023-05-03T09:31:38.287Z,3.10
2023-05-03T09:34:24.847Z,3.95
2023-05-03T09:36:52.086Z,3.75
2023-05-03T09:39:20.057Z,3.83
2023-05-03T09:41:47.834Z,4.03
2023-05-03T09:44:15.104Z,2.67
2023-05-03T09:47:03.484Z,3.67
2023-05-03T09:49:33.979Z,2.90
2023-05-03T09:52:01.768Z,3.22
2023-05-03T09:54:31.617Z,3.85
2023-05-03T09:57:00.826Z,2.95
2023-05-03T09:59:31.558Z,2.75
2023-05-03T10:02:02.717Z,3.28
2023-05-03T10:04:47.234Z,3.00
2023-05-03T10:07:18.654Z,3.45
2023-05-03T10:09:48.268Z,3.85
2023-05-03T10:12:19.222Z,3.40
2023-05-03T10:14:48.904Z,3.72
2023-05-03T10:17:47.116Z,3.40
2023-05-03T10:20:28.673Z,3.13
2023-05-03T10:23:05.237Z,3.70
2023-05-03T10:25:33.461Z,4.00
2023-05-03T10:28:10.300Z,3.67
2023-05-03T10:30:43.560Z,3.17
2023-05-03T10:33:13.735Z,3.03
2023-05-03T10:35:43.413Z,3.00
2023-05-03T10:38:20.899Z,3.28
2023-05-03T10:40:51.361Z,3.10
2023-05-03T10:43:33.509Z,3.70
2023-05-03T10:46:09.100Z,3.38
2023-05-03T10:48:36.322Z,5.05
2023-05-03T10:51:37.042Z,4.57
2023-05-03T10:54:04.580Z,2.75
2023-05-03T10:56:31.873Z,3.40
2023-05-03T10:58:59.298Z,2.65
2023-05-03T11:01:28.182Z,2.50
2023-05-03T11:04:34.242Z,3.00
2023-05-03T11:07:01.948Z,2.90
2023-05-03T11:09:34.228Z,2.97
2023-05-03T11:12:05.995Z,3.10
2023-05-03T11:14:33.262Z,2.70
2023-05-03T11:17:01.463Z,2.65
2023-05-03T11:19:29.385Z,2.60
2023-05-03T11:21:57.382Z,3.03
2023-05-03T11:24:24.557Z,3.08
2023-05-03T11:26:51.711Z,2.45
2023-05-03T11:29:19.749Z,3.50
2023-05-03T11:31:47.283Z,3.42
2023-05-03T11:34:23.449Z,3.20
2023-05-03T11:36:51.342Z,2.78
2023-05-03T11:39:21.726Z,2.97
2023-05-03T11:42:05.688Z,3.83
2023-05-03T11:44:33.355Z,3.22
2023-05-03T11:47:00.848Z,2.95
2023-05-03T11:49:28.560Z,2.88
2023-05-03T11:51:56.614Z,2.80
2023-05-03T11:54:26.908Z,3.28
2023-05-03T11:56:58.132Z,3.63
2023-05-03T11:59:37.328Z,2.90
2023-05-03T12:02:05.909Z,2.47
2023-05-03T12:04:33.807Z,3.13
2023-05-03T12:07:03.236Z,2.80
2023-05-03T12:09:33.770Z,3.05
2023-05-03T12:12:06.650Z,1.58
2023-05-03T12:14:55.859Z,1.75
2023-05-03T12:17:39.551Z,1.50
2023-05-03T12:22:58.971Z,1.70
2023-05-03T12:25:30.846Z,2.05
2023-05-03T12:30:34.175Z,2.67
2023-05-03T12:33:04.291Z,2.05
2023-05-03T12:35:34.085Z,4.05
2023-05-03T12:38:04.703Z,3.42
2023-05-03T12:40:34.562Z,3.35
2023-05-03T12:43:02.424Z,3.50
2023-05-03T12:45:34.444Z,3.15
2023-05-03T12:48:03.097Z,2.42
2023-05-03T12:50:31.909Z,2.75
2023-05-03T12:53:02.304Z,2.78
2023-05-03T12:55:35.658Z,2.70
2023-05-03T12:58:36.752Z,3.10
2023-05-03T13:03:32.760Z,3.60
2023-05-03T13:06:12.600Z,2.95
2023-05-03T13:08:48.882Z,3.28
2023-05-03T13:11:19.599Z,3.08
2023-05-03T13:13:47.270Z,3.35
2023-05-03T13:16:14.767Z,3.00
2023-05-03T13:18:43.233Z,3.40
2023-05-03T13:21:11.372Z,4.30
2023-05-03T13:23:38.757Z,3.50
2023-05-03T13:26:07.375Z,4.00
2023-05-03T13:28:34.683Z,3.00
2023-05-03T13:31:02.175Z,3.45
2023-05-03T13:33:29.834Z,3.00
2023-05-03T13:35:57.663Z,3.00
2023-05-03T13:38:24.877Z,2.55
2023-05-03T13:40:52.840Z,2.95
2023-05-03T13:43:28.116Z,2.58
2023-05-03T13:46:03.604Z,2.90
2023-05-03T13:48:33.419Z,3.20
2023-05-03T13:51:03.275Z,2.50
2023-05-03T13:53:30.481Z,3.67
2023-05-03T13:55:57.974Z,3.72
2023-05-03T13:58:25.110Z,3.63
2023-05-03T14:00:52.306Z,3.75
2023-05-03T14:03:19.737Z,3.65
2023-05-03T14:05:47.708Z,4.00
2023-05-03T14:08:16.881Z,4.30
2023-05-03T14:10:44.852Z,3.33
2023-05-03T14:13:14.691Z,3.63
2023-05-03T14:15:44.006Z,3.92
2023-05-03T14:18:11.977Z,3.45
2023-05-03T14:20:39.256Z,3.70
2023-05-03T14:23:09.068Z,3.50
2023-05-03T14:25:38.789Z,3.50
2023-05-03T14:28:06.199Z,3.78
2023-05-03T14:30:33.842Z,2.85
2023-05-03T14:33:01.276Z,2.30
2023-05-03T14:35:28.628Z,2.97
2023-05-03T14:37:58.652Z,2.85
2023-05-03T14:40:25.874Z,3.53
2023-05-03T14:42:53.341Z,3.60
2023-05-03T14:45:20.412Z,2.88
2023-05-03T14:47:47.623Z,3.28
2023-05-03T14:50:15.435Z,2.88
2023-05-03T14:52:42.479Z,3.00
2023-05-03T14:55:10.954Z,3.35
2023-05-03T14:57:41.726Z,2.85
2023-05-03T15:00:14.408Z,2.90
2023-05-03T15:02:42.542Z,2.70
2023-05-03T15:05:11.322Z,2.58
2023-05-03T15:07:38.749Z,2.60
2023-05-03T15:10:08.179Z,2.92
2023-05-03T15:12:36.756Z,2.70
2023-05-03T15:15:05.228Z,2.53
2023-05-03T15:17:34.448Z,3.10
2023-05-03T15:20:02.161Z,3.75
2023-05-03T15:22:29.902Z,3.17
2023-05-03T15:24:56.994Z,3.50
2023-05-03T15:27:24.618Z,2.78
2023-05-03T15:29:53.248Z,2.65
2023-05-03T15:32:20.657Z,1.60
2023-05-03T15:34:47.894Z,1.88
2023-05-03T15:37:16.166Z,1.50
2023-05-03T15:39:45.985Z,1.38
2023-05-03T15:42:15.875Z,1.48
2023-05-03T15:44:45.408Z,2.80
2023-05-03T15:47:12.622Z,1.63
2023-05-03T15:49:42.186Z,1.75
2023-05-03T15:52:09.433Z,2.08
2023-05-03T15:54:36.670Z,1.70
2023-05-03T15:57:05.025Z,1.75
2023-05-03T15:59:31.980Z,1.60
2023-05-03T16:02:08.224Z,1.98
2023-05-03T16:04:37.605Z,1.73
2023-05-03T16:07:04.763Z,1.65
2023-05-03T16:09:31.907Z,2.63
2023-05-03T16:11:59.416Z,2.08
2023-05-03T16:14:26.609Z,1.58
2023-05-03T16:16:54.614Z,1.60
2023-05-03T16:19:22.685Z,1.77
2023-05-03T16:21:58.076Z,1.88
2023-05-03T16:24:36.843Z,1.60
2023-05-03T16:27:31.548Z,2.30
2023-05-03T16:30:16.329Z,1.70
2023-05-03T16:32:55.466Z,2.15
2023-05-03T16:35:24.173Z,1.73
2023-05-03T16:37:52.250Z,2.35
2023-05-03T16:40:22.638Z,2.75
2023-05-03T16:42:52.855Z,2.30
2023-05-03T16:45:23.821Z,2.42
2023-05-03T16:47:54.026Z,1.50
2023-05-03T16:50:23.889Z,1.55
2023-05-03T16:52:51.972Z,2.50
2023-05-03T16:55:25.009Z,1.90
2023-05-03T16:57:54.926Z,1.55
2023-05-03T17:00:25.217Z,1.90
2023-05-03T17:02:53.035Z,2.38
2023-05-03T17:05:20.540Z,1.77
2023-05-03T17:07:48.044Z,1.95
2023-05-03T17:10:15.898Z,2.38
2023-05-03T17:12:43.088Z,1.90
2023-05-03T17:15:10.992Z,1.98
2023-05-03T17:17:38.406Z,1.88
2023-05-03T17:20:11.154Z,1.88
2023-05-03T17:22:38.303Z,1.70
2023-05-03T17:25:06.809Z,1.67
2023-05-03T17:27:33.956Z,1.45
2023-05-03T17:30:01.108Z,1.63
2023-05-03T17:32:28.543Z,1.90
2023-05-03T17:34:59.645Z,2.15
2023-05-03T17:37:27.256Z,2.17
2023-05-03T17:39:56.976Z,1.80
2023-05-03T17:42:24.211Z,1.98
2023-05-03T17:44:52.257Z,1.63
2023-05-03T17:47:19.451Z,1.90
2023-05-03T17:49:46.735Z,2.20
2023-05-03T17:52:13.946Z,2.17
2023-05-03T17:54:41.823Z,2.38
2023-05-03T17:57:10.166Z,1.90
2023-05-03T17:59:37.429Z,2.13
2023-05-03T18:02:04.953Z,1.75
2023-05-03T18:04:32.677Z,1.95
2023-05-03T18:06:59.980Z,2.20
2023-05-03T18:09:30.889Z,2.15
2023-05-03T18:12:00.471Z,2.15
2023-05-03T18:14:27.692Z,2.28
2023-05-03T18:16:55.391Z,1.73
2023-05-03T18:19:24.087Z,3.13
2023-05-03T18:21:52.631Z,2.17
2023-05-03T18:24:19.801Z,2.20
2023-05-03T18:26:47.391Z,2.28
2023-05-03T18:29:14.989Z,2.00
2023-05-03T18:31:45.199Z,2.60
2023-05-03T18:36:44.208Z,1.90
2023-05-03T18:39:11.706Z,1.88
2023-05-03T18:41:39.130Z,2.17
2023-05-03T18:44:07.916Z,2.42
2023-05-03T18:46:37.499Z,2.33
2023-05-03T18:49:05.246Z,2.25
2023-05-03T18:51:32.731Z,2.55
2023-05-03T18:53:59.981Z,2.00
2023-05-03T18:56:30.616Z,2.22
2023-05-03T18:58:57.919Z,2.17
2023-05-03T19:01:26.808Z,1.80
2023-05-03T19:03:55.252Z,2.22
2023-05-03T19:06:22.515Z,2.00
2023-05-03T19:08:50.049Z,2.58
2023-05-03T19:11:17.696Z,2.35
2023-05-03T19:13:45.681Z,2.15
2023-05-03T19:16:13.786Z,3.15
2023-05-03T19:18:42.230Z,2.25
2023-05-03T19:21:19.576Z,2.75
2023-05-03T19:23:47.035Z,3.55
2023-05-03T19:26:16.885Z,2.72
2023-05-03T19:28:44.298Z,3.03
2023-05-03T19:31:11.960Z,2.95
2023-05-03T19:33:39.252Z,2.75
2023-05-03T19:36:07.093Z,2.50
2023-05-03T19:38:37.654Z,1.85
2023-05-03T19:41:14.209Z,2.40
2023-05-03T19:43:42.482Z,2.72
2023-05-03T19:46:11.950Z,2.97
2023-05-03T19:48:39.129Z,2.35
2023-05-03T19:51:13.985Z,2.70
2023-05-03T19:53:42.008Z,3.17
2023-05-03T19:56:10.266Z,2.17
2023-05-03T19:58:40.376Z,2.50
2023-05-03T20:01:07.765Z,3.60
2023-05-03T20:03:35.599Z,2.80
2023-05-03T20:06:03.728Z,3.30
2023-05-03T20:08:32.645Z,2.97
2023-05-03T20:11:00.218Z,2.78
2023-05-03T20:13:28.610Z,3.03
2023-05-03T20:15:56.627Z,2.67
2023-05-03T20:18:23.954Z,2.53
2023-05-03T20:20:51.243Z,2.67
2023-05-03T20:23:18.569Z,2.45
2023-05-03T20:25:49.029Z,2.40
2023-05-03T20:28:16.385Z,2.78
2023-05-03T20:30:43.648Z,2.80
2023-05-03T20:33:12.700Z,3.03
2023-05-03T20:35:40.480Z,2.50
2023-05-03T20:38:07.887Z,3.03
2023-05-03T20:40:35.945Z,3.00
2023-05-03T20:43:03.203Z,3.80
2023-05-03T20:45:30.504Z,3.75
2023-05-03T20:47:57.731Z,3.55
2023-05-03T20:50:24.843Z,3.47
2023-05-03T20:52:52.121Z,3.47
2023-05-03T20:55:19.829Z,3.35
2023-05-03T20:57:47.100Z,2.58
2023-05-03T21:00:17.782Z,2.58
2023-05-03T21:02:45.185Z,2.50
2023-05-03T21:05:12.851Z,3.03
2023-05-03T21:07:40.182Z,3.67
2023-05-03T21:10:08.085Z,2.78
2023-05-03T21:12:35.323Z,2.53
2023-05-03T21:15:02.469Z,2.50
2023-05-03T21:17:29.738Z,2.50
2023-05-03T21:19:56.992Z,3.58
2023-05-03T21:22:24.136Z,3.00
2023-05-03T21:24:51.343Z,3.53
2023-05-03T21:27:19.577Z,3.58
2023-05-03T21:29:46.700Z,4.20
2023-05-03T21:32:13.934Z,3.72
2023-05-03T21:34:40.999Z,3.85
2023-05-03T21:37:08.500Z,4.68
2023-05-03T21:39:36.871Z,3.10
2023-05-03T21:42:04.374Z,4.13
2023-05-03T21:44:31.727Z,3.47
2023-05-03T21:46:59.041Z,4.20
2023-05-03T21:49:26.273Z,3.33
2023-05-03T21:51:53.940Z,4.22
2023-05-03T21:54:21.033Z,3.97
2023-05-03T21:56:48.351Z,4.18
2023-05-03T21:59:15.767Z,3.67
2023-05-03T22:01:42.966Z,3.97
2023-05-03T22:04:10.390Z,3.65
2023-05-03T22:06:38.252Z,3.63
2023-05-03T22:09:05.532Z,4.45
2023-05-03T22:11:32.798Z,3.38
2023-05-03T22:14:07.605Z,2.75
2023-05-03T22:16:37.936Z,2.92
2023-05-03T22:19:05.581Z,2.60
2023-05-03T22:21:32.894Z,2.67
2023-05-03T22:24:03.105Z,3.10
2023-05-03T22:26:30.482Z,2.38
2023-05-03T22:28:57.675Z,2.33
2023-05-03T22:31:26.227Z,2.80
2023-05-03T22:33:53.495Z,2.75
2023-05-03T22:36:20.869Z,2.50
2023-05-03T22:38:48.059Z,2.50
2023-05-03T22:41:15.770Z,2.63
2023-05-03T22:43:43.184Z,2.53
2023-05-03T22:46:10.479Z,2.47
2023-05-03T22:48:37.713Z,2.80
2023-05-03T22:51:05.347Z,2.78
2023-05-03T22:53:33.135Z,2.92
2023-05-03T22:56:04.373Z,2.72
2023-05-03T22:58:31.917Z,3.65
2023-05-03T23:00:59.127Z,2.97
2023-05-03T23:03:27.705Z,2.72
2023-05-03T23:05:55.331Z,2.45
2023-05-03T23:08:22.583Z,3.08
2023-05-03T23:10:50.267Z,2.35
2023-05-03T23:13:17.857Z,2.47
2023-05-03T23:15:45.450Z,2.63
2023-05-03T23:18:12.853Z,2.42
2023-05-03T23:20:40.023Z,2.65
2023-05-03T23:23:07.302Z,2.80
2023-05-03T23:25:36.903Z,2.60
2023-05-03T23:28:04.286Z,2.97
2023-05-03T23:30:31.997Z,2.83
2023-05-03T23:32:59.714Z,3.10
2023-05-03T23:35:27.477Z,2.90
2023-05-03T23:37:54.936Z,3.13
2023-05-03T23:40:22.081Z,3.45
2023-05-03T23:42:50.043Z,3.33
2023-05-03T23:45:17.508Z,3.15
2023-05-03T23:47:44.740Z,3.15
2023-05-03T23:50:14.619Z,2.75
2023-05-03T23:52:42.378Z,3.03
2023-05-03T23:55:10.503Z,3.30
2023-05-03T23:57:38.116Z,2.80
